Latest Weather Observations for Canberra

IDN60901

Issued at 4:01 am EDT Sunday 21 October 2018 (issued every 10 minutes, with the page automatically refreshed every 10 minutes)

About weather observations | Map of Canberra area stations | Latest observations for Canberra area | Other Formats
Station Details ID: 070351 Name: CANBERRA AIRPORT Lat: -35.31 Lon: 149.20 Height: 577.05 m
Data from the previous 72 hours. | See also: Recent months at Canberra
Date/Time
EDT
Temp
°C
App
Temp
°C
Dew
Point
°C
Rel
Hum
%
Delta-T
°C
Wind Press
QNH
hPa
Press
MSL
hPa
Rain since
9am
mm
Dir  Spd
km/h
Gust
km/h
Spd
kts
Gust
kts
21/04:00am 5.9 4.9 5.5 97 0.2 CALM 0 0 0 0 1015.4 1014.7 9.4
21/03:30am 6.4 4.6 5.4 93 0.5 N 4 9 2 5 1015.4 1014.7 9.4
21/03:00am 7.6 5.5 5.7 88 0.9 N 6 7 3 4 1015.3 1014.6 9.4
21/02:30am 7.6 5.3 5.6 87 0.9 N 7 9 4 5 1015.4 1014.7 9.4
21/02:00am 9.1 5.9 6.7 85 1.2 NNE 13 15 7 8 1015.7 1015.1 9.4
21/01:30am 10.0 6.9 7.4 84 1.3 NNE 13 17 7 9 1015.7 1015.1 9.4
21/01:00am 10.2 7.2 7.8 85 1.2 N 13 15 7 8 1016.2 1015.5 9.4
21/12:30am 11.1 8.6 8.1 82 1.5 N 11 15 6 8 1016.3 1015.6 9.4
21/12:00am 11.6 9.0 7.9 78 1.9 N 11 17 6 9 1015.9 1015.3 9.4
 
Date/Time
EDT
Temp
°C
App
Temp
°C
Dew
Point
°C
Rel
Hum
%
Delta-T
°C
Wind Press
QNH
hPa
Press
MSL
hPa
Rain since
9am
mm
Dir  Spd
km/h
Gust
km/h
Spd
kts
Gust
kts
20/11:30pm 12.3 7.8 8.4 77 2.0 NW 22 30 12 16 1016.0 1015.4 9.4
20/11:00pm 14.1 11.2 9.7 75 2.3 N 15 19 8 10 1016.2 1015.5 9.4
20/10:30pm 14.2 12.6 10.2 77 2.1 NNE 9 15 5 8 1015.8 1015.2 9.4
20/10:00pm 14.2 10.9 9.4 73 2.5 WNW 17 26 9 14 1015.6 1014.9 9.4
20/09:30pm 15.3 11.8 10.3 72 2.7 WNW 19 28 10 15 1015.5 1014.8 9.4
20/09:00pm 15.6 13.5 11.2 75 2.4 WNW 13 20 7 11 1015.3 1014.6 9.4
20/08:30pm 16.4 16.0 15.3 93 0.7 N 11 15 6 8 1014.5 1013.8 9.4
20/08:00pm 15.7 15.0 15.4 98 0.2 E 13 15 7 8 1013.6 1012.9 9.4
20/07:30pm 16.3 15.8 14.8 91 0.9 N 11 13 6 7 1012.9 1012.2 9.4
20/07:00pm 17.1 16.8 15.4 90 1.0 NNE 11 15 6 8 1012.6 1011.8 9.4
20/06:30pm 17.9 17.9 16.2 90 1.0 NNE 11 13 6 7 1012.2 1011.5 9.4
20/06:00pm 17.3 16.5 16.2 93 0.7 NNE 15 19 8 10 1011.7 1011.0 9.4
20/05:30pm 16.5 16.4 16.0 97 0.3 NE 11 15 6 8 1011.9 1011.2 9.4
20/05:00pm 16.6 17.3 16.0 96 0.4 NNE 7 9 4 5 1011.7 1011.0 9.4
20/04:30pm 16.1 15.4 15.5 96 0.4 WSW 13 17 7 9 1011.9 1011.2 9.4
20/04:18pm 16.3 13.9 15.3 94 0.6 W 22 41 12 22 1011.8 1011.1 9.2
20/04:08pm 17.0 14.7 14.6 86 1.4 NW 20 30 11 16 1011.6 1010.9 6.8
20/04:00pm 18.1 16.0 13.6 75 2.6 NNE 17 28 9 15 1010.5 1009.8 6.0
20/03:56pm 19.2 17.3 12.9 67 3.6 NNE 15 26 8 14 1009.9 1009.2 5.2
20/03:43pm 19.5 17.7 13.4 68 3.6 NNE 15 22 8 12 1010.0 1009.3 5.2
20/03:30pm 19.4 18.9 13.8 70 3.3 NNE 9 15 5 8 1010.8 1010.0 5.2
20/03:00pm 17.5 16.1 13.4 77 2.4 ENE 13 19 7 10 1011.7 1011.0 5.0
20/02:41pm 17.1 16.7 14.2 83 1.7 SSE 9 11 5 6 1012.7 1011.9 5.0
20/02:30pm 16.6 17.1 14.1 85 1.5 NNE 4 17 2 9 1013.0 1012.3 5.0
20/02:21pm 16.8 14.3 13.5 81 1.9 NNE 19 26 10 14 1012.6 1011.8 4.8
20/02:00pm 17.7 15.3 13.8 78 2.3 NNW 19 32 10 17 1013.0 1012.3 4.4
20/01:41pm 17.9 17.1 15.0 83 1.7 NNW 13 19 7 10 1012.9 1012.2 4.2
20/01:30pm 18.7 17.7 14.6 77 2.4 NNE 13 22 7 12 1012.5 1011.7 4.2
20/01:00pm 17.1 16.4 15.3 89 1.1 ENE 13 19 7 10 1013.1 1012.4 4.2
20/12:45pm 17.1 16.4 14.4 84 1.6 N 11 19 6 10 1013.3 1012.6 4.2
20/12:30pm 16.7 11.5 12.8 78 2.2 WNW 32 52 17 28 1013.6 1012.9 4.0
20/12:29pm 16.6 11.2 12.8 78 2.2 WNW 33 52 18 28 1013.6 1012.9 3.8
20/12:21pm 18.5 13.2 12.5 68 3.4 W 32 50 17 27 1013.1 1012.4 3.6
20/12:11pm 17.7 12.8 14.2 80 2.1 WNW 33 57 18 31 1012.7 1011.9 3.4
20/12:04pm 23.6 18.5 13.8 54 5.9 NNW 33 52 18 28 1012.7 1011.9 0.0
20/12:00pm 24.3 18.5 12.6 48 6.9 NNW 35 50 19 27 1012.5 1011.7 0.0
20/11:58am 24.5 18.6 12.5 47 7.1 NNW 35 50 19 27 1012.5 1011.7 0.0
20/11:36am 26.5 21.6 13.6 45 7.8 N 32 52 17 28 1012.5 1011.7 0.0
20/11:30am 25.5 21.1 13.0 46 7.5 N 28 37 15 20 1012.5 1011.7 0.0
20/11:00am 24.7 22.3 12.6 47 7.1 NNW 17 30 9 16 1013.3 1012.6 0.0
20/10:30am 23.8 22.5 11.2 45 7.2 WNW 9 17 5 9 1013.7 1013.0 0.0
20/10:00am 21.8 21.9 10.3 48 6.4 CALM 0 0 0 0 1014.4 1013.7 0.0
20/09:30am 19.6 19.4 9.2 51 5.6 CALM 0 0 0 0 1014.6 1013.9 0.0
20/09:00am 17.4 17.1 8.5 56 4.7 CALM 0 0 0 0 1014.6 1013.9 0.0
20/08:30am 15.5 14.2 7.8 60 4.0 WSW 4 9 2 5 1014.5 1013.8 0.0
20/08:00am 14.0 13.0 7.5 65 3.3 NNE 2 9 1 5 1014.4 1013.7 0.0
20/07:30am 12.7 12.1 7.2 69 2.7 CALM 0 0 0 0 1014.5 1013.8 0.0
20/07:00am 11.8 11.0 6.7 71 2.5 CALM 0 0 0 0 1014.5 1013.8 0.0
20/06:30am 11.8 11.0 6.3 69 2.7 CALM 0 0 0 0 1014.1 1013.4 0.0
20/06:00am 11.4 10.5 6.1 70 2.6 CALM 0 0 0 0 1014.1 1013.4 0.0
20/05:30am 11.1 9.0 5.8 70 2.5 NNW 6 7 3 4 1013.7 1013.0 0.0
20/05:00am 11.0 9.2 5.5 69 2.6 NE 4 7 2 4 1013.6 1012.9 0.0
20/04:30am 10.8 9.8 5.6 70 2.5 CALM 0 0 0 0 1013.5 1012.8 0.0
20/04:00am 10.6 9.5 5.2 69 2.5 CALM 0 0 0 0 1013.7 1013.0 0.0
20/03:30am 10.8 9.7 5.1 68 2.7 CALM 0 0 0 0 1013.9 1013.2 0.0
20/03:00am 10.8 8.6 5.1 68 2.7 NNW 6 7 3 4 1014.4 1013.7 0.0
20/02:30am 11.5 10.3 4.7 63 3.2 CALM 0 0 0 0 1014.6 1013.9 0.0
20/02:00am 11.8 10.6 4.8 62 3.3 CALM 0 0 0 0 1014.8 1014.1 0.0
20/01:30am 11.7 10.5 4.7 62 3.3 CALM 0 0 0 0 1015.3 1014.6 0.0
20/01:00am 12.5 11.4 5.2 61 3.5 CALM 0 0 0 0 1015.7 1015.1 0.0
20/12:30am 11.7 10.5 4.4 61 3.4 CALM 0 0 0 0 1015.9 1015.3 0.0
20/12:00am 13.0 10.5 4.9 58 3.9 E 7 9 4 5 1015.9 1015.3 0.0
 
Date/Time
EDT
Temp
°C
App
Temp
°C
Dew
Point
°C
Rel
Hum
%
Delta-T
°C
Wind Press
QNH
hPa
Press
MSL
hPa
Rain since
9am
mm
Dir  Spd
km/h
Gust
km/h
Spd
kts
Gust
kts
19/11:30pm 11.9 9.3 4.2 59 3.6 S 7 9 4 5 1016.3 1015.6 0.0
19/11:00pm 13.4 10.8 4.3 54 4.3 S 7 7 4 4 1016.3 1015.6 0.0
19/10:30pm 15.0 13.8 4.7 50 5.0 CALM 0 0 0 0 1016.2 1015.5 0.0
19/10:00pm 15.3 14.0 4.1 47 5.3 CALM 0 0 0 0 1016.2 1015.5 0.0
19/09:30pm 15.8 13.7 3.9 45 5.7 ENE 4 11 2 6 1015.9 1015.3 0.0
19/09:00pm 16.7 14.5 3.1 40 6.4 ENE 4 7 2 4 1015.9 1015.3 0.0
19/08:30pm 17.4 14.1 2.6 37 7.0 ENE 9 11 5 6 1015.6 1014.9 0.0
19/08:00pm 19.5 16.5 1.9 31 8.3 W 7 11 4 6 1015.4 1014.7 0.0
19/07:30pm 22.1 18.0 2.2 27 9.6 NW 13 19 7 10 1015.1 1014.4 0.0
19/07:00pm 24.4 18.8 1.3 22 11.2 NNW 20 28 11 15 1014.7 1014.0 0.0
19/06:30pm 25.3 19.2 2.7 23 11.3 NW 24 30 13 16 1014.3 1013.6 0.0
19/06:00pm 26.2 21.6 3.5 23 11.6 NW 17 30 9 16 1014.1 1013.4 0.0
19/05:30pm 26.5 21.1 4.3 24 11.5 NW 22 30 12 16 1014.3 1013.6 0.0
19/05:00pm 27.0 21.5 4.1 23 11.8 NW 22 33 12 18 1014.4 1013.7 0.0
19/04:30pm 26.4 21.2 3.6 23 11.6 NNW 20 32 11 17 1014.5 1013.8 0.0
19/04:17pm 27.2 20.7 4.9 24 11.7 NW 28 50 15 27 1014.8 1014.1 0.0
19/04:00pm 27.3 21.3 3.1 21 12.3 NNW 24 33 13 18 1014.8 1014.1 0.0
19/03:34pm 26.9 20.5 3.4 22 12.0 NNW 26 48 14 26 1014.8 1014.1 0.0
19/03:30pm 26.6 20.7 3.8 23 11.7 NNW 24 33 13 18 1014.8 1014.1 0.0
19/03:00pm 26.6 21.2 4.4 24 11.5 NNW 22 37 12 20 1015.3 1014.6 0.0
19/02:30pm 27.1 20.9 2.2 20 12.5 NW 24 35 13 19 1015.8 1015.2 0.0
19/02:00pm 26.2 20.0 4.1 24 11.4 WNW 26 37 14 20 1016.2 1015.5 0.0
19/01:30pm 25.8 20.4 4.3 25 11.1 NW 22 37 12 20 1016.5 1015.8 0.0
19/01:00pm 25.8 19.3 4.9 26 10.9 NW 28 39 15 21 1016.7 1016.0 0.0
19/12:30pm 25.3 18.3 6.0 29 10.2 NW 32 41 17 22 1017.1 1016.4 0.0
19/12:00pm 24.5 19.2 6.7 32 9.5 NNW 24 37 13 20 1017.4 1016.8 0.0
19/11:30am 23.6 17.9 6.8 34 8.9 NW 26 37 14 20 1018.2 1017.5 0.0
19/11:00am 23.8 19.3 7.0 34 9.0 NW 20 33 11 18 1018.5 1017.8 0.0
19/10:30am 22.8 19.4 7.8 38 8.1 WNW 15 22 8 12 1018.9 1018.3 0.0
19/10:00am 19.7 17.7 8.7 49 5.9 NW 9 11 5 6 1019.1 1018.5 0.0
19/09:30am 17.5 15.6 8.9 57 4.6 NNW 9 11 5 6 1019.3 1018.7 0.0
19/09:00am 15.5 15.1 8.3 62 3.7 CALM 0 0 0 0 1019.3 1018.7 0.0
19/08:30am 13.3 12.7 7.5 68 2.9 CALM 0 0 0 0 1019.3 1018.7 0.0
19/08:00am 11.2 10.6 7.3 77 1.9 CALM 0 6 0 3 1019.3 1018.7 0.0
19/07:30am 9.1 7.3 7.2 88 0.9 W 6 7 3 4 1019.2 1018.6 0.0
19/07:00am 8.0 7.5 7.7 98 0.1 CALM 0 0 0 0 1019.1 1018.5 0.0
19/06:30am 6.0 4.6 5.6 97 0.2 W 2 6 1 3 1018.9 1018.3 0.0
19/06:00am 6.3 5.4 6.0 98 0.1 CALM 0 0 0 0 1018.7 1018.0 0.0
19/05:30am 6.4 5.4 5.8 96 0.3 CALM 0 0 0 0 1018.3 1017.6 0.0
19/05:00am 6.2 5.1 5.3 94 0.4 CALM 0 0 0 0 1018.2 1017.5 0.0
19/04:30am 6.9 4.7 6.2 95 0.3 W 7 7 4 4 1018.0 1017.3 0.0
19/04:00am 7.1 5.9 6.4 95 0.3 W 2 9 1 5 1017.8 1017.2 0.0
19/03:30am 6.9 5.9 5.4 90 0.7 CALM 0 0 0 0 1018.0 1017.3 0.0
19/03:00am 8.3 6.4 6.6 89 0.8 W 6 7 3 4 1018.0 1017.3 0.0
19/02:30am 8.3 7.6 6.8 90 0.7 CALM 0 0 0 0 1018.0 1017.3 0.0
19/02:00am 7.8 6.8 5.6 86 1.0 CALM 0 0 0 0 1018.2 1017.5 0.0
19/01:30am 8.9 8.1 6.5 85 1.1 CALM 0 0 0 0 1018.5 1017.8 0.0
19/01:00am 9.6 8.0 6.5 81 1.5 W 4 7 2 4 1018.8 1018.2 0.0
19/12:30am 10.2 9.5 7.1 81 1.5 CALM 0 0 0 0 1018.9 1018.3 0.0
19/12:00am 11.0 10.4 7.3 78 1.8 CALM 0 0 0 0 1019.1 1018.5 0.0
 
Date/Time
EDT
Temp
°C
App
Temp
°C
Dew
Point
°C
Rel
Hum
%
Delta-T
°C
Wind Press
QNH
hPa
Press
MSL
hPa
Rain since
9am
mm
Dir  Spd
km/h
Gust
km/h
Spd
kts
Gust
kts
18/11:30pm 11.8 11.3 7.9 77 2.0 CALM 0 0 0 0 1019.0 1018.4 0.0
18/11:00pm 11.5 10.8 7.0 74 2.2 CALM 0 0 0 0 1018.9 1018.3 0.0
18/10:30pm 12.8 11.1 7.7 71 2.6 W 6 7 3 4 1018.7 1018.0 0.0
18/10:00pm 13.1 11.2 7.5 69 2.8 W 7 9 4 5 1018.6 1017.9 0.0
18/09:30pm 13.7 13.2 7.7 67 3.1 CALM 0 0 0 0 1018.5 1017.8 0.0
18/09:00pm 15.2 14.7 7.7 61 3.8 CALM 0 0 0 0 1018.2 1017.5 0.0
18/08:30pm 17.3 15.6 7.6 53 5.0 W 6 7 3 4 1017.7 1017.1 0.0
18/08:00pm 18.7 16.2 8.1 50 5.6 WSW 11 13 6 7 1017.3 1016.7 0.0
18/07:30pm 19.7 16.7 7.8 46 6.3 W 13 17 7 9 1016.9 1016.2 0.0
18/07:00pm 21.3 17.6 7.9 42 7.2 W 17 24 9 13 1016.5 1015.8 0.0
18/06:30pm 22.5 17.9 6.7 36 8.3 WNW 20 32 11 17 1016.0 1015.4 0.0
18/06:00pm 23.4 18.9 7.1 35 8.7 WNW 20 32 11 17 1015.5 1014.8 0.0
18/05:30pm 23.8 19.6 8.2 37 8.5 WNW 20 30 11 16 1015.3 1014.6 0.0
18/05:00pm 22.7 18.4 8.0 39 7.9 W 20 26 11 14 1015.2 1014.5 0.0
18/04:30pm 23.1 18.8 8.0 38 8.2 WNW 20 30 11 16 1015.1 1014.4 0.0
18/04:00pm 24.1 19.5 8.1 36 8.7 W 22 28 12 15 1015.3 1014.6 0.0
18/03:30pm 23.1 18.9 8.4 39 8.0 NW 20 30 11 16 1015.5 1014.8 0.0
18/03:00pm 23.4 18.4 7.9 37 8.4 WNW 24 35 13 19 1015.6 1014.9 0.0
18/02:30pm 23.7 19.3 8.9 39 8.2 WNW 22 41 12 22 1016.0 1015.4 0.0
18/02:00pm 22.8 18.2 9.6 43 7.3 W 24 35 13 19 1016.2 1015.5 0.0
18/01:41pm 23.6 17.5 8.1 37 8.4 NNW 30 48 16 26 1016.4 1015.7 0.0
18/01:30pm 24.0 18.3 8.4 37 8.5 NNW 28 39 15 21 1016.5 1015.8 0.0
18/01:00pm 23.2 17.3 9.2 41 7.7 NW 30 39 16 21 1016.8 1016.1 0.0
18/12:30pm 20.9 15.8 9.2 47 6.4 NW 26 44 14 24 1017.0 1016.3 0.0
18/12:00pm 21.4 15.8 10.3 49 6.2 NW 30 37 16 20 1017.3 1016.7 0.0
18/11:30am 20.7 17.5 11.3 55 5.3 WNW 19 30 10 16 1017.5 1016.9 0.0
18/11:00am 19.5 17.5 11.5 60 4.5 NW 13 24 7 13 1018.0 1017.3 0.0
18/10:30am 18.5 17.0 11.8 65 3.8 NNE 11 19 6 10 1018.2 1017.5 0.0
18/10:00am 17.2 15.6 11.7 70 3.1 NNW 11 17 6 9 1018.4 1017.7 0.0
18/09:30am 16.0 14.9 12.0 77 2.2 N 9 15 5 8 1018.4 1017.7 0.0
18/09:00am 15.1 13.4 12.4 84 1.5 N 13 17 7 9 1018.3 1017.6 0.8
18/08:30am 14.1 12.3 12.0 87 1.2 NNE 13 17 7 9 1018.2 1017.5 0.8
18/08:00am 14.0 11.8 12.0 88 1.1 NNE 15 19 8 10 1017.8 1017.2 0.8
18/07:30am 14.3 12.6 12.5 89 1.0 NNE 13 17 7 9 1017.3 1016.7 0.8
18/07:00am 13.8 11.7 12.5 92 0.7 NNE 15 17 8 9 1017.0 1016.3 0.8
18/06:30am 13.7 11.7 12.8 94 0.5 NNE 15 17 8 9 1016.8 1016.1 0.8
18/06:00am 13.9 12.4 13.0 94 0.5 NNE 13 15 7 8 1016.5 1015.8 0.8
18/05:30am 13.9 12.9 13.4 97 0.3 NNE 11 15 6 8 1016.0 1015.4 0.8
18/05:00am 12.5 11.5 12.2 98 0.2 NNW 9 9 5 5 1015.7 1015.1 0.8
18/04:30am 12.8 12.2 12.3 97 0.3 NNE 7 9 4 5 1015.4 1014.7 0.6

Latest Capital City Observations: Canberra | Sydney | Melbourne | Brisbane | Adelaide | Perth | Hobart | Darwin

Other Formats:

Comma delimited format used in spreadsheet applications
http://www.bom.gov.au/fwo/IDN60903/IDN60903.94926.axf

JavaScript Object Notation format (JSON) in row-major order
http://www.bom.gov.au/fwo/IDN60903/IDN60903.94926.json